createdAt,value
2023-05-12T00:13:44.798Z,10
2023-05-12T00:42:45.915Z,21
2023-05-12T01:11:37.220Z,8
2023-05-12T01:40:32.960Z,16
2023-05-12T02:09:27.840Z,26
2023-05-12T02:38:24.664Z,29
2023-05-12T03:07:21.146Z,30
2023-05-12T03:36:24.181Z,33
2023-05-12T04:05:21.360Z,36
2023-05-12T04:34:17.754Z,37
2023-05-12T05:03:14.184Z,41
2023-05-12T05:31:48.802Z,41
2023-05-12T06:00:21.205Z,41
2023-05-12T06:29:17.584Z,38
2023-05-12T06:58:05.654Z,36
2023-05-12T07:27:01.372Z,35
2023-05-12T07:55:55.659Z,31
2023-05-12T08:24:52.800Z,35
2023-05-12T08:53:48.893Z,24
2023-05-12T09:22:44.082Z,14
2023-05-12T09:51:40.886Z,14
2023-05-12T10:20:31.133Z,17
2023-05-12T10:49:31.585Z,15
2023-05-12T11:18:24.638Z,16
2023-05-12T11:47:10.006Z,14
2023-05-12T12:16:07.801Z,15
2023-05-12T12:44:53.028Z,11
2023-05-12T13:13:54.620Z,26
2023-05-12T13:42:56.387Z,11
2023-05-12T14:12:05.695Z,7
2023-05-12T14:41:00.314Z,8
2023-05-12T15:10:07.217Z,3
2023-05-12T15:38:50.476Z,5
2023-05-12T16:07:37.804Z,4
2023-05-12T16:36:44.381Z,3
2023-05-12T17:05:47.280Z,10
2023-05-12T17:34:41.744Z,14
2023-05-12T18:03:27.309Z,11
2023-05-12T18:32:05.263Z,10
2023-05-12T19:01:07.144Z,10
2023-05-12T19:29:53.326Z,11
2023-05-12T19:58:54.763Z,16
2023-05-12T20:28:06.678Z,14
2023-05-12T20:57:09.521Z,13
2023-05-12T21:26:03.237Z,14
2023-05-12T21:55:04.848Z,11
2023-05-12T22:23:59.179Z,13
2023-05-12T22:52:58.039Z,14
2023-05-12T23:21:52.792Z,13
2023-05-12T23:50:56.246Z,13
